Time;durP1;ratioP1;P1;durP2;ratioP2;P2;SDS_P1;SDS_P2;PMS_P1;PMS_P2;Temp;Humidity;BMP_temperature;BMP_pressure;BME280_temperature;BME280_humidity;BME280_pressure;Samples;Min_cycle;Max_cycle;Signal;HPM_P1;HPM_P2
2023/05/24 00:01:41;;;;;;;10.37;9.33;;;13.70;99.90;;;;;;5013826;28;20200;-78
2023/05/24 00:04:09;;;;;;;10.60;9.80;;;13.70;99.90;;;;;;5010880;28;20295;-77
2023/05/24 00:06:36;;;;;;;10.37;9.37;;;13.70;99.90;;;;;;5008127;28;20250;-77
2023/05/24 00:09:03;;;;;;;11.53;10.40;;;13.70;99.90;;;;;;5007722;28;20364;-77
2023/05/24 00:11:30;;;;;;;9.97;9.07;;;13.70;99.90;;;;;;5011805;28;20252;-77
2023/05/24 00:13:58;;;;;;;10.27;9.37;;;13.60;99.90;;;;;;5010142;28;20760;-77
2023/05/24 00:16:24;;;;;;;10.10;9.30;;;13.60;99.90;;;;;;5008866;28;20581;-77
2023/05/24 00:18:53;;;;;;;9.90;9.10;;;13.60;99.90;;;;;;5012856;28;20198;-77
2023/05/24 00:21:20;;;;;;;9.73;8.83;;;13.50;99.90;;;;;;5012603;28;20202;-77
2023/05/24 00:23:47;;;;;;;10.13;9.23;;;13.60;99.90;;;;;;5008758;28;20210;-76
2023/05/24 00:26:14;;;;;;;9.97;9.17;;;13.60;99.90;;;;;;5022646;28;20225;-77
2023/05/24 00:28:46;;;;;;;10.13;9.23;;;13.60;99.90;;;;;;5014229;28;20741;-77
2023/05/24 00:31:13;;;;;;;10.50;9.70;;;13.50;99.90;;;;;;5011335;28;20626;-77
2023/05/24 00:33:40;;;;;;;10.00;9.20;;;13.40;99.90;;;;;;5012571;28;20189;-77
2023/05/24 00:36:08;;;;;;;9.67;8.97;;;13.50;99.90;;;;;;5010149;28;20224;-77
2023/05/24 00:38:35;;;;;;;9.40;8.60;;;13.50;99.90;;;;;;5005847;28;20639;-77
2023/05/24 00:41:01;;;;;;;9.57;8.77;;;13.40;99.90;;;;;;5006696;28;20818;-77
2023/05/24 00:43:28;;;;;;;10.27;9.27;;;13.40;99.90;;;;;;5012176;28;20245;-77
2023/05/24 00:46:14;;;;;;;9.07;8.27;;;13.30;99.90;;;;;;5021716;28;20269;-78
2023/05/24 00:48:40;;;;;;;10.93;9.80;;;13.40;99.90;;;;;;5008111;28;20200;-77
2023/05/24 00:51:09;;;;;;;10.43;9.43;;;13.30;99.90;;;;;;5007692;28;20209;-77
2023/05/24 00:53:37;;;;;;;11.03;10.03;;;13.40;99.90;;;;;;5012627;28;20192;-77
2023/05/24 00:56:04;;;;;;;9.43;8.63;;;13.40;99.90;;;;;;5009977;28;20234;-77
2023/05/24 00:58:31;;;;;;;11.87;10.27;;;13.40;99.90;;;;;;5030130;28;20200;-77
2023/05/24 01:00:59;;;;;;;10.30;9.40;;;13.30;99.90;;;;;;5008629;28;20205;-78
2023/05/24 01:03:29;;;;;;;10.17;9.27;;;13.30;99.90;;;;;;5012536;28;20225;-77
2023/05/24 01:05:56;;;;;;;9.27;8.57;;;13.30;99.90;;;;;;5010590;28;20224;-77
2023/05/24 01:08:43;;;;;;;9.87;9.07;;;13.20;99.90;;;;;;5010034;28;20299;-77
2023/05/24 01:11:19;;;;;;;9.10;8.40;;;13.20;99.90;;;;;;5011079;28;20210;-77
2023/05/24 01:13:52;;;;;;;9.30;8.57;;;13.20;99.90;;;;;;5008270;28;20196;-77
2023/05/24 01:16:24;;;;;;;10.07;9.20;;;13.20;99.90;;;;;;5010887;28;20225;-78
2023/05/24 01:18:56;;;;;;;11.03;10.13;;;13.10;99.90;;;;;;5014484;28;20260;-80
2023/05/24 01:21:47;;;;;;;9.77;8.87;;;13.10;99.90;;;;;;5015473;28;20197;-80
2023/05/24 01:24:25;;;;;;;10.53;9.40;;;13.10;99.90;;;;;;5014791;28;20218;-78
2023/05/24 01:27:11;;;;;;;12.30;11.20;;;13.10;99.90;;;;;;5013487;28;20247;-75
2023/05/24 01:29:38;;;;;;;10.47;9.53;;;13.10;99.90;;;;;;5019739;28;20259;-76
2023/05/24 01:32:07;;;;;;;9.20;8.50;;;13.10;99.90;;;;;;5008322;28;20208;-76
2023/05/24 01:34:34;;;;;;;9.03;8.30;;;13.10;99.90;;;;;;5005409;28;20694;-76
2023/05/24 01:37:00;;;;;;;9.50;8.63;;;13.10;99.90;;;;;;5011048;28;20279;-76
2023/05/24 01:39:29;;;;;;;9.00;8.30;;;13.10;99.90;;;;;;5007735;28;20690;-76
2023/05/24 01:42:07;;;;;;;9.13;8.40;;;13.10;99.90;;;;;;5006489;28;20216;-76
2023/05/24 01:44:40;;;;;;;10.47;9.57;;;13.10;99.90;;;;;;5008873;28;20216;-77
2023/05/24 01:47:19;;;;;;;9.97;8.40;;;13.00;99.90;;;;;;5011711;28;20209;-76
2023/05/24 01:49:50;;;;;;;9.87;9.07;;;13.00;99.90;;;;;;5010124;28;20254;-76
2023/05/24 01:52:22;;;;;;;9.93;9.03;;;13.00;99.90;;;;;;5009383;28;20282;-77
2023/05/24 01:54:52;;;;;;;9.07;8.37;;;13.00;99.90;;;;;;5010892;28;20278;-75
2023/05/24 01:57:20;;;;;;;9.70;8.70;;;13.00;99.90;;;;;;5017907;28;20675;-75
2023/05/24 01:59:50;;;;;;;8.57;7.93;;;13.00;99.90;;;;;;5005360;28;20636;-77
2023/05/24 02:02:17;;;;;;;8.40;7.80;;;13.10;99.90;;;;;;5008903;28;20205;-76
2023/05/24 02:04:44;;;;;;;8.83;8.03;;;13.00;99.90;;;;;;5007613;28;20232;-76
2023/05/24 02:07:11;;;;;;;9.10;8.40;;;13.00;99.90;;;;;;5007384;28;20288;-76
2023/05/24 02:09:37;;;;;;;10.23;8.43;;;13.00;99.90;;;;;;5008149;28;20201;-76
2023/05/24 02:12:05;;;;;;;9.27;8.43;;;13.00;99.90;;;;;;5010748;28;20663;-78
2023/05/24 02:14:32;;;;;;;9.50;8.60;;;13.00;99.90;;;;;;5008819;28;20221;-76
2023/05/24 02:17:01;;;;;;;9.27;8.37;;;13.00;99.90;;;;;;5012420;28;20832;-76
2023/05/24 02:19:28;;;;;;;8.73;8.03;;;13.00;99.90;;;;;;5007958;28;20636;-74
2023/05/24 02:21:55;;;;;;;9.50;8.70;;;12.90;99.90;;;;;;5004910;28;20224;-76
2023/05/24 02:24:21;;;;;;;11.20;10.30;;;13.00;99.90;;;;;;5008220;28;21437;-76
2023/05/24 02:26:48;;;;;;;9.83;9.07;;;13.00;99.90;;;;;;5007331;28;20683;-77
2023/05/24 02:29:15;;;;;;;9.57;8.87;;;12.90;99.90;;;;;;5007454;28;20205;-76
2023/05/24 02:31:42;;;;;;;9.67;8.97;;;12.90;99.90;;;;;;5010823;28;20201;-76
2023/05/24 02:34:10;;;;;;;9.93;8.97;;;12.90;99.90;;;;;;5007058;28;20201;-75
2023/05/24 02:36:37;;;;;;;9.57;8.53;;;12.80;99.90;;;;;;5005987;28;20660;-76
2023/05/24 02:39:04;;;;;;;10.07;8.30;;;12.80;99.90;;;;;;5005674;28;20198;-76
2023/05/24 02:41:31;;;;;;;9.10;8.30;;;12.80;99.90;;;;;;5007621;28;20250;-79
2023/05/24 02:43:58;;;;;;;9.97;9.03;;;12.80;99.90;;;;;;5007203;28;20213;-76
2023/05/24 02:46:25;;;;;;;9.90;8.90;;;12.70;99.90;;;;;;5007353;28;20224;-76
2023/05/24 02:48:51;;;;;;;8.80;8.00;;;12.60;99.90;;;;;;5010536;28;20203;-76
2023/05/24 02:51:20;;;;;;;9.50;8.50;;;12.60;99.90;;;;;;5007728;28;20196;-76
2023/05/24 02:53:47;;;;;;;9.90;9.10;;;12.60;99.90;;;;;;4997711;28;20200;-77
2023/05/24 02:56:16;;;;;;;9.60;8.80;;;12.50;99.90;;;;;;5010985;28;20718;-77
2023/05/24 02:58:43;;;;;;;10.73;8.97;;;12.50;99.90;;;;;;5005031;28;20266;-78
2023/05/24 03:01:11;;;;;;;11.43;9.20;;;12.50;99.90;;;;;;4993471;28;20209;-78
2023/05/24 03:03:38;;;;;;;9.93;7.70;;;12.40;99.90;;;;;;5014674;28;20205;-80
2023/05/24 03:06:06;;;;;;;9.33;8.53;;;12.40;99.90;;;;;;5010229;28;20277;-81
2023/05/24 03:08:36;;;;;;;10.60;9.60;;;12.40;99.90;;;;;;5002818;28;20291;-78
2023/05/24 03:11:03;;;;;;;9.50;8.70;;;12.40;99.90;;;;;;5006381;28;20225;-78
2023/05/24 03:13:30;;;;;;;10.40;9.43;;;12.40;99.90;;;;;;5003842;28;20213;-80
2023/05/24 03:15:56;;;;;;;8.80;8.00;;;12.40;99.90;;;;;;5012544;28;20240;-79
2023/05/24 03:18:26;;;;;;;9.83;8.53;;;12.30;99.90;;;;;;5007145;28;20569;-79
2023/05/24 03:20:54;;;;;;;10.60;8.37;;;12.30;99.90;;;;;;5022989;28;20254;-79
2023/05/24 03:23:21;;;;;;;11.03;7.93;;;12.30;99.90;;;;;;5012869;28;20231;-78
2023/05/24 03:25:50;;;;;;;10.97;7.70;;;12.20;99.90;;;;;;5011292;28;20242;-78
2023/05/24 03:28:17;;;;;;;9.07;8.17;;;12.20;99.90;;;;;;5010391;28;20259;-78
2023/05/24 03:30:44;;;;;;;8.87;7.97;;;12.20;99.90;;;;;;5017618;28;20777;-79
2023/05/24 03:33:12;;;;;;;8.73;7.83;;;12.10;99.90;;;;;;5016251;28;20289;-78
2023/05/24 03:35:39;;;;;;;11.77;7.20;;;12.10;99.90;;;;;;5010196;28;20219;-79
2023/05/24 03:38:05;;;;;;;11.60;7.43;;;12.10;99.90;;;;;;5008088;28;20224;-78
2023/05/24 03:40:34;;;;;;;7.73;6.90;;;12.10;99.90;;;;;;5007095;28;20239;-79
2023/05/24 03:43:14;;;;;;;7.87;7.07;;;12.10;99.90;;;;;;5011893;28;20229;-77
2023/05/24 03:45:56;;;;;;;8.10;6.70;;;12.10;99.90;;;;;;5010144;28;20315;-77
2023/05/24 03:48:23;;;;;;;8.30;6.93;;;12.10;99.90;;;;;;5009722;28;20201;-78
2023/05/24 03:50:51;;;;;;;7.67;6.87;;;12.10;99.90;;;;;;5005123;28;20691;-80
2023/05/24 03:53:18;;;;;;;8.43;7.00;;;12.10;99.90;;;;;;5009708;28;20219;-78
2023/05/24 03:55:45;;;;;;;11.17;7.67;;;12.00;99.90;;;;;;5007939;28;20879;-76
2023/05/24 03:58:13;;;;;;;9.23;7.70;;;12.00;99.90;;;;;;5017116;28;20287;-77
2023/05/24 04:00:40;;;;;;;11.73;10.00;;;12.00;99.90;;;;;;5015491;28;20231;-78
2023/05/24 04:03:07;;;;;;;11.07;9.67;;;12.00;99.90;;;;;;5016552;28;20237;-76
2023/05/24 04:05:35;;;;;;;12.67;9.50;;;12.00;99.90;;;;;;5010301;28;20710;-78
2023/05/24 04:08:02;;;;;;;12.37;9.87;;;12.00;99.90;;;;;;5008991;28;20208;-76
2023/05/24 04:10:28;;;;;;;9.43;8.20;;;12.00;99.90;;;;;;5022120;28;20264;-76
2023/05/24 04:12:55;;;;;;;9.30;8.47;;;12.00;99.90;;;;;;5012276;28;20203;-77
2023/05/24 04:15:24;;;;;;;9.07;8.27;;;12.00;99.90;;;;;;5013058;28;20208;-75
2023/05/24 04:17:53;;;;;;;10.17;9.00;;;12.10;99.90;;;;;;5015309;28;20699;-76
2023/05/24 04:20:22;;;;;;;11.03;9.83;;;12.10;99.90;;;;;;5012767;28;20701;-76
2023/05/24 04:22:49;;;;;;;12.77;10.27;;;12.10;99.90;;;;;;5010018;28;20200;-76
2023/05/24 04:25:16;;;;;;;13.03;8.43;;;12.10;99.90;;;;;;5008871;28;20312;-76
2023/05/24 04:27:46;;;;;;;11.63;9.10;;;12.10;99.90;;;;;;5014159;28;20270;-76
2023/05/24 04:30:14;;;;;;;9.27;8.37;;;12.10;99.90;;;;;;5012441;28;20204;-76
2023/05/24 04:32:44;;;;;;;13.93;8.60;;;12.10;99.90;;;;;;5012644;28;20691;-78
2023/05/24 04:35:11;;;;;;;8.97;8.07;;;12.20;99.90;;;;;;5014066;28;20710;-77
2023/05/24 04:37:38;;;;;;;9.93;8.20;;;12.20;99.90;;;;;;5015280;28;20844;-77
2023/05/24 04:40:06;;;;;;;10.33;9.13;;;12.20;99.90;;;;;;5013338;28;20308;-76
2023/05/24 04:42:33;;;;;;;12.00;10.77;;;12.20;99.90;;;;;;5027083;28;20299;-76
2023/05/24 04:45:00;;;;;;;11.87;10.70;;;12.20;99.90;;;;;;5010600;28;20263;-77
2023/05/24 04:47:27;;;;;;;10.97;9.90;;;12.10;99.90;;;;;;5013515;28;20209;-77
2023/05/24 04:49:55;;;;;;;9.00;8.00;;;12.20;99.90;;;;;;5005680;28;20207;-76
2023/05/24 04:52:22;;;;;;;10.90;7.50;;;12.20;99.90;;;;;;5013298;28;20201;-76
2023/05/24 04:54:49;;;;;;;9.07;7.13;;;12.30;99.90;;;;;;5016345;28;20298;-77
2023/05/24 04:57:16;;;;;;;10.53;9.63;;;12.30;99.90;;;;;;5017654;28;20206;-76
2023/05/24 04:59:43;;;;;;;13.07;10.50;;;12.30;99.90;;;;;;5009579;28;20201;-77
2023/05/24 05:02:10;;;;;;;14.03;10.57;;;12.40;99.90;;;;;;5022841;28;20240;-76
2023/05/24 05:04:37;;;;;;;11.10;10.10;;;12.30;99.90;;;;;;5014521;28;20239;-76
2023/05/24 05:07:05;;;;;;;10.40;9.40;;;12.30;99.90;;;;;;5017997;28;20213;-76
2023/05/24 05:09:32;;;;;;;8.50;7.53;;;12.40;99.90;;;;;;5023782;28;20227;-76
2023/05/24 05:11:59;;;;;;;10.50;9.60;;;12.50;99.90;;;;;;5020807;28;20213;-76
2023/05/24 05:14:26;;;;;;;9.73;8.73;;;12.50;99.90;;;;;;5008597;28;20225;-76
2023/05/24 05:16:53;;;;;;;9.67;8.87;;;12.60;99.90;;;;;;5016260;28;20754;-76
2023/05/24 05:19:20;;;;;;;12.13;8.13;;;12.60;99.90;;;;;;5011296;28;20271;-76
2023/05/24 05:21:47;;;;;;;9.47;8.40;;;12.60;99.90;;;;;;5010286;28;20239;-76
2023/05/24 05:24:16;;;;;;;12.23;9.23;;;12.60;99.90;;;;;;5009328;28;20228;-76
2023/05/24 05:26:43;;;;;;;10.40;9.40;;;12.60;99.90;;;;;;5009591;28;20230;-76
2023/05/24 05:29:10;;;;;;;8.37;7.57;;;12.60;99.90;;;;;;5020193;28;20697;-76
2023/05/24 05:31:38;;;;;;;8.93;8.07;;;12.60;99.90;;;;;;5013890;28;20626;-76
2023/05/24 05:34:08;;;;;;;9.67;8.67;;;12.70;99.90;;;;;;5014028;28;20220;-76
2023/05/24 05:36:39;;;;;;;10.93;8.27;;;12.60;99.90;;;;;;5012695;28;20204;-78
2023/05/24 05:39:08;;;;;;;11.27;8.90;;;12.60;99.90;;;;;;5010611;28;20283;-77
2023/05/24 05:41:36;;;;;;;11.80;8.90;;;12.70;99.90;;;;;;5008005;28;20196;-76
2023/05/24 05:44:03;;;;;;;10.10;8.20;;;12.80;99.90;;;;;;5011501;28;20219;-76
2023/05/24 05:46:30;;;;;;;11.37;7.97;;;12.70;99.90;;;;;;5011057;28;20248;-76
2023/05/24 05:48:57;;;;;;;8.37;7.53;;;12.70;99.90;;;;;;5010788;28;20219;-76
2023/05/24 05:51:23;;;;;;;7.63;6.83;;;12.70;99.90;;;;;;5009451;28;20615;-76
2023/05/24 05:53:50;;;;;;;8.47;7.63;;;12.80;99.90;;;;;;5014926;28;20327;-76
2023/05/24 05:56:17;;;;;;;10.67;8.67;;;12.80;99.90;;;;;;5010789;28;20227;-76
2023/05/24 05:58:45;;;;;;;13.13;8.00;;;12.80;99.90;;;;;;5016349;28;20211;-77
2023/05/24 06:01:12;;;;;;;11.73;8.53;;;12.90;99.90;;;;;;5012355;28;20652;-77
2023/05/24 06:03:39;;;;;;;8.73;7.80;;;13.00;99.90;;;;;;5010472;28;20205;-76
2023/05/24 06:06:06;;;;;;;10.10;8.27;;;12.90;99.90;;;;;;5007141;28;20651;-76
2023/05/24 06:08:33;;;;;;;13.83;8.50;;;12.90;99.90;;;;;;5012705;28;20258;-76
2023/05/24 06:11:00;;;;;;;11.90;7.40;;;12.90;99.90;;;;;;5008511;28;20267;-76
2023/05/24 06:13:27;;;;;;;10.93;8.47;;;12.90;99.90;;;;;;5009313;28;20232;-76
2023/05/24 06:15:55;;;;;;;11.50;9.30;;;13.00;99.90;;;;;;5012589;28;20224;-76
2023/05/24 06:18:22;;;;;;;10.97;9.63;;;13.00;99.90;;;;;;5008367;28;20232;-76
2023/05/24 06:20:49;;;;;;;10.47;7.90;;;13.00;99.90;;;;;;5016225;28;20674;-78
2023/05/24 06:23:16;;;;;;;9.60;8.80;;;13.00;99.90;;;;;;5015408;28;20197;-80
2023/05/24 06:25:43;;;;;;;12.80;9.63;;;13.20;99.90;;;;;;5016341;28;20225;-80
2023/05/24 06:28:10;;;;;;;12.77;10.50;;;13.30;99.90;;;;;;5020721;28;20223;-80
2023/05/24 06:30:36;;;;;;;11.87;8.83;;;13.30;99.90;;;;;;5025935;28;20201;-80
2023/05/24 06:33:05;;;;;;;9.97;9.03;;;13.30;99.90;;;;;;5010099;28;20212;-80
2023/05/24 06:35:31;;;;;;;14.63;10.43;;;13.40;99.90;;;;;;5013797;28;20303;-84
2023/05/24 06:37:58;;;;;;;10.33;5.63;;;13.50;99.90;;;;;;5019159;28;20558;-82
2023/05/24 06:40:25;;;;;;;15.37;9.07;;;13.50;99.90;;;;;;5015307;28;20200;-81
2023/05/24 06:42:52;;;;;;;9.87;8.70;;;13.60;99.90;;;;;;5007265;28;20683;-79
2023/05/24 06:45:19;;;;;;;14.57;8.23;;;13.70;99.90;;;;;;5000735;28;20560;-80
2023/05/24 06:47:46;;;;;;;7.93;6.07;;;13.80;99.90;;;;;;5003151;28;20204;-80
2023/05/24 06:50:15;;;;;;;7.83;5.13;;;14.00;99.90;;;;;;5008047;28;20209;-80
2023/05/24 06:52:42;;;;;;;11.10;5.43;;;14.10;99.90;;;;;;5006210;28;20202;-78
2023/05/24 06:55:09;;;;;;;10.03;8.10;;;14.10;99.90;;;;;;5009598;28;20280;-79
2023/05/24 06:57:36;;;;;;;11.47;8.00;;;14.00;99.90;;;;;;5013556;28;20199;-78
2023/05/24 07:00:08;;;;;;;10.63;5.20;;;14.10;99.90;;;;;;5023473;28;20218;-79
2023/05/24 07:02:35;;;;;;;9.87;5.00;;;14.10;99.90;;;;;;5014867;28;20226;-80
2023/05/24 07:05:02;;;;;;;12.67;8.60;;;13.90;99.90;;;;;;5010471;28;20211;-80
2023/05/24 07:07:30;;;;;;;11.17;7.53;;;13.80;99.90;;;;;;5018168;28;20248;-78
2023/05/24 07:09:57;;;;;;;9.60;7.47;;;13.90;99.90;;;;;;5014312;28;20215;-79
2023/05/24 07:12:23;;;;;;;9.53;8.50;;;14.00;99.90;;;;;;5010941;28;20670;-79
2023/05/24 07:14:50;;;;;;;8.70;7.67;;;14.10;99.90;;;;;;5009089;28;20223;-79
2023/05/24 07:17:17;;;;;;;8.73;7.30;;;14.10;99.90;;;;;;5010484;28;20199;-79
2023/05/24 07:19:44;;;;;;;7.70;4.97;;;14.10;99.90;;;;;;5009966;28;20240;-79
2023/05/24 07:22:11;;;;;;;11.53;5.23;;;14.00;99.90;;;;;;5012496;28;20203;-80
2023/05/24 07:24:39;;;;;;;8.90;4.90;;;13.90;99.90;;;;;;5016809;28;20218;-81
2023/05/24 07:27:06;;;;;;;8.90;5.13;;;14.00;99.90;;;;;;5019576;28;20601;-82
2023/05/24 07:29:33;;;;;;;9.57;5.37;;;14.00;99.90;;;;;;5013487;28;20294;-82
2023/05/24 07:32:00;;;;;;;9.23;5.30;;;14.10;99.90;;;;;;5019235;28;20723;-82
2023/05/24 07:34:28;;;;;;;9.53;7.27;;;14.20;99.90;;;;;;5013737;28;20218;-79
2023/05/24 07:36:57;;;;;;;11.33;4.87;;;14.30;99.90;;;;;;5017095;28;20198;-80
2023/05/24 07:39:26;;;;;;;7.87;5.60;;;14.40;99.90;;;;;;5015046;28;20201;-82
2023/05/24 07:41:54;;;;;;;11.00;7.43;;;14.50;99.90;;;;;;5014345;28;20361;-83
2023/05/24 07:44:21;;;;;;;8.73;7.80;;;14.50;99.90;;;;;;5015929;28;20198;-82
2023/05/24 07:46:47;;;;;;;12.57;6.90;;;14.50;99.90;;;;;;5016763;28;20223;-81
2023/05/24 07:49:14;;;;;;;10.53;7.70;;;14.30;99.90;;;;;;5011870;28;20203;-80
2023/05/24 07:51:41;;;;;;;11.43;8.47;;;14.20;99.90;;;;;;5016942;28;20222;-81
2023/05/24 07:54:08;;;;;;;12.23;7.90;;;14.20;99.90;;;;;;5015932;28;20197;-80
2023/05/24 07:56:36;;;;;;;10.50;7.70;;;14.10;99.90;;;;;;5013858;28;20216;-81
2023/05/24 07:59:05;;;;;;;12.73;7.93;;;14.10;99.90;;;;;;5012245;28;20203;-82
2023/05/24 08:01:33;;;;;;;9.50;7.33;;;14.00;99.90;;;;;;5013162;28;20272;-81
2023/05/24 08:04:00;;;;;;;7.43;5.10;;;14.10;99.90;;;;;;5020003;28;20701;-82
2023/05/24 08:06:27;;;;;;;9.93;5.30;;;14.10;99.90;;;;;;5019033;28;20220;-82
2023/05/24 08:08:55;;;;;;;10.53;4.90;;;14.00;99.90;;;;;;5011138;28;20496;-82
2023/05/24 08:11:22;;;;;;;17.10;6.90;;;14.10;99.90;;;;;;5015579;28;20189;-80
2023/05/24 08:13:48;;;;;;;7.93;5.83;;;14.00;99.90;;;;;;5015363;28;20195;-81
2023/05/24 08:16:18;;;;;;;8.73;4.90;;;14.00;99.90;;;;;;5014354;28;20774;-83
2023/05/24 08:18:44;;;;;;;12.87;6.07;;;14.10;99.90;;;;;;5011412;28;20212;-82
2023/05/24 08:21:11;;;;;;;10.03;7.17;;;14.20;99.90;;;;;;5016082;28;20193;-82
2023/05/24 08:23:38;;;;;;;11.13;8.50;;;14.10;99.90;;;;;;5009222;28;20214;-82
2023/05/24 08:26:05;;;;;;;13.23;5.53;;;13.90;99.90;;;;;;5019219;28;20272;-82
2023/05/24 08:28:32;;;;;;;8.73;7.50;;;13.90;99.90;;;;;;5015435;28;20252;-81
2023/05/24 08:30:59;;;;;;;11.10;6.00;;;13.80;99.90;;;;;;5014456;28;20211;-82
2023/05/24 08:33:27;;;;;;;9.17;5.97;;;13.70;99.90;;;;;;5011487;28;20279;-80
2023/05/24 08:35:54;;;;;;;12.90;10.40;;;13.60;99.90;;;;;;5013383;28;20226;-79
2023/05/24 08:38:21;;;;;;;9.63;6.23;;;13.40;99.90;;;;;;5014087;28;20195;-79
2023/05/24 08:40:48;;;;;;;11.60;8.60;;;13.30;99.90;;;;;;5014976;28;20197;-79
2023/05/24 08:43:15;;;;;;;9.30;8.40;;;13.30;99.90;;;;;;5021250;28;20767;-79
2023/05/24 08:45:42;;;;;;;11.67;9.20;;;13.20;99.90;;;;;;5017571;28;20218;-80
2023/05/24 08:48:11;;;;;;;13.37;9.90;;;13.20;99.90;;;;;;5011389;28;20204;-79
2023/05/24 08:50:40;;;;;;;10.67;9.50;;;13.20;99.90;;;;;;5008258;28;20205;-80
2023/05/24 08:53:08;;;;;;;10.60;9.33;;;13.40;99.90;;;;;;5011892;28;20189;-79
2023/05/24 08:55:36;;;;;;;13.60;9.13;;;13.60;99.90;;;;;;5010224;28;20216;-79
2023/05/24 08:58:04;;;;;;;14.13;8.97;;;13.70;99.90;;;;;;5008930;28;20209;-80
2023/05/24 09:00:31;;;;;;;11.20;8.60;;;13.90;99.90;;;;;;5009789;28;20205;-80
2023/05/24 09:02:59;;;;;;;11.27;7.97;;;13.90;99.90;;;;;;5013237;28;20245;-78
2023/05/24 09:05:29;;;;;;;10.07;8.10;;;14.00;99.90;;;;;;5009191;28;20716;-78
2023/05/24 09:07:59;;;;;;;10.93;8.17;;;14.20;99.90;;;;;;5006169;28;20231;-79
2023/05/24 09:10:28;;;;;;;14.60;6.17;;;14.40;99.90;;;;;;5022093;28;20670;-78
2023/05/24 09:12:57;;;;;;;11.33;6.67;;;14.60;99.90;;;;;;5008637;28;20224;-79
2023/05/24 09:15:25;;;;;;;10.47;5.83;;;14.70;99.90;;;;;;5011576;28;20731;-80
2023/05/24 09:17:51;;;;;;;12.47;5.63;;;15.10;99.90;;;;;;5011391;28;20811;-81
2023/05/24 09:20:19;;;;;;;16.07;6.43;;;15.20;99.90;;;;;;5014649;28;20201;-80
2023/05/24 09:22:50;;;;;;;8.27;5.10;;;15.30;99.90;;;;;;5016323;28;20227;-80
2023/05/24 09:25:20;;;;;;;11.03;6.10;;;15.60;99.90;;;;;;5012362;28;20223;-79
2023/05/24 09:27:50;;;;;;;11.53;5.50;;;15.50;99.90;;;;;;5016665;28;20733;-80
2023/05/24 09:30:17;;;;;;;9.53;5.57;;;15.60;99.90;;;;;;5015054;28;20280;-80
2023/05/24 09:32:55;;;;;;;9.87;5.77;;;15.80;99.90;;;;;;5014710;28;20196;-80
2023/05/24 09:35:22;;;;;;;11.30;5.13;;;15.80;99.90;;;;;;5012130;28;20224;-79
2023/05/24 09:37:49;;;;;;;6.43;4.53;;;15.90;99.90;;;;;;5016518;28;20192;-81
2023/05/24 09:40:19;;;;;;;10.53;5.27;;;16.10;99.90;;;;;;5015816;28;20196;-80
2023/05/24 09:42:50;;;;;;;12.13;5.97;;;16.20;99.90;;;;;;5024739;28;20211;-80
2023/05/24 09:45:17;;;;;;;8.97;5.00;;;16.20;99.90;;;;;;5019801;28;20221;-78
2023/05/24 09:47:44;;;;;;;11.00;5.33;;;16.30;99.90;;;;;;5021156;28;20213;-77
2023/05/24 09:50:14;;;;;;;11.17;7.70;;;16.40;99.90;;;;;;5013391;28;20247;-77
2023/05/24 09:52:41;;;;;;;9.00;7.03;;;16.60;99.90;;;;;;5013867;28;20236;-76
2023/05/24 09:55:12;;;;;;;12.33;6.37;;;16.60;99.90;;;;;;5032797;28;20212;-77
2023/05/24 09:57:41;;;;;;;13.77;6.60;;;16.50;99.90;;;;;;5022421;28;20203;-77
2023/05/24 10:00:16;;;;;;;9.00;4.83;;;16.30;99.90;;;;;;5027795;28;20295;-78
2023/05/24 10:02:45;;;;;;;9.50;5.07;;;16.20;99.90;;;;;;5016478;28;20209;-77
2023/05/24 10:05:12;;;;;;;13.57;6.53;;;16.20;99.90;;;;;;5024807;28;20216;-77
2023/05/24 10:07:40;;;;;;;10.60;7.03;;;16.30;99.90;;;;;;5013392;28;20225;-76
2023/05/24 10:10:09;;;;;;;10.30;7.80;;;16.10;99.90;;;;;;5027737;28;20201;-77
2023/05/24 10:12:36;;;;;;;11.00;6.30;;;16.00;99.90;;;;;;5011309;28;20201;-77
2023/05/24 10:15:05;;;;;;;12.77;8.10;;;15.90;99.90;;;;;;5024198;28;20720;-77
2023/05/24 10:17:33;;;;;;;13.27;7.80;;;15.90;99.90;;;;;;5020818;28;20662;-77
2023/05/24 10:20:00;;;;;;;9.27;7.77;;;15.90;99.90;;;;;;5007321;28;20205;-76
2023/05/24 10:22:28;;;;;;;8.07;6.50;;;15.80;99.90;;;;;;5013838;28;20209;-76
2023/05/24 10:24:58;;;;;;;15.93;6.37;;;15.70;99.90;;;;;;5025232;28;20242;-77
2023/05/24 10:27:30;;;;;;;10.67;5.23;;;15.40;99.90;;;;;;5012899;28;20245;-76
2023/05/24 10:30:06;;;;;;;9.23;5.30;;;15.40;99.90;;;;;;5020386;28;20212;-77
2023/05/24 10:32:37;;;;;;;7.50;4.83;;;15.20;99.90;;;;;;5025578;28;20199;-78
2023/05/24 10:35:07;;;;;;;11.03;5.30;;;15.30;99.90;;;;;;5020802;28;20252;-77
2023/05/24 10:37:34;;;;;;;10.30;5.83;;;15.10;99.90;;;;;;5025840;28;20195;-77
2023/05/24 10:40:01;;;;;;;8.00;6.33;;;15.00;99.90;;;;;;5022186;28;20263;-77
2023/05/24 10:42:31;;;;;;;15.47;10.07;;;14.70;99.90;;;;;;5025987;28;20211;-76
2023/05/24 10:44:57;;;;;;;11.13;9.93;;;14.60;99.90;;;;;;5021687;28;20226;-76
2023/05/24 10:47:27;;;;;;;12.37;9.50;;;14.40;99.90;;;;;;5016541;28;20208;-77
2023/05/24 10:49:58;;;;;;;14.70;10.73;;;14.30;99.90;;;;;;5020204;28;20198;-76
2023/05/24 10:52:34;;;;;;;12.20;10.00;;;14.30;99.90;;;;;;5022739;28;20204;-77
2023/05/24 10:55:03;;;;;;;14.30;9.40;;;14.30;99.90;;;;;;5019029;28;20727;-76
2023/05/24 10:57:31;;;;;;;11.57;10.07;;;14.30;99.90;;;;;;5025272;28;20253;-77
2023/05/24 11:00:18;;;;;;;14.97;7.60;;;14.20;99.90;;;;;;5028569;28;20230;-76
2023/05/24 11:02:49;;;;;;;11.13;9.60;;;14.20;99.90;;;;;;5021470;28;20203;-76
2023/05/24 11:05:17;;;;;;;10.57;7.10;;;14.20;99.90;;;;;;5013687;28;20779;-76
2023/05/24 11:07:44;;;;;;;12.93;10.60;;;14.20;99.90;;;;;;5027787;28;20218;-77
2023/05/24 11:10:15;;;;;;;14.23;8.43;;;14.20;99.90;;;;;;5028055;28;20301;-78
2023/05/24 11:12:43;;;;;;;14.80;9.13;;;14.20;99.90;;;;;;5035644;28;20276;-79
2023/05/24 11:15:11;;;;;;;10.87;8.10;;;14.10;99.90;;;;;;5015623;28;20224;-81
2023/05/24 11:18:12;;;;;;;9.43;8.53;;;14.00;99.90;;;;;;5006372;28;20612;-80
2023/05/24 11:20:41;;;;;;;9.83;8.87;;;14.10;99.90;;;;;;5016085;28;20259;-78
2023/05/24 11:23:09;;;;;;;11.97;10.20;;;14.10;99.90;;;;;;5027827;28;20627;-80
2023/05/24 11:25:37;;;;;;;15.70;11.27;;;13.90;99.90;;;;;;5017055;28;20223;-80
2023/05/24 11:28:06;;;;;;;10.57;8.77;;;13.90;99.90;;;;;;5025009;28;20213;-81
2023/05/24 11:30:33;;;;;;;13.03;6.77;;;13.90;99.90;;;;;;5017750;28;20211;-80
2023/05/24 11:33:01;;;;;;;11.93;9.13;;;13.80;99.90;;;;;;5011973;28;20203;-78
2023/05/24 11:35:28;;;;;;;9.57;8.17;;;13.80;99.90;;;;;;5019691;28;20229;-78
2023/05/24 11:37:57;;;;;;;11.77;8.17;;;13.80;99.90;;;;;;5009377;28;20226;-78
2023/05/24 11:40:24;;;;;;;14.10;9.47;;;13.70;99.90;;;;;;5028482;28;20231;-77
2023/05/24 11:42:52;;;;;;;11.47;9.33;;;13.80;99.90;;;;;;5019970;28;20205;-79
2023/05/24 11:45:19;;;;;;;9.77;8.00;;;13.80;99.90;;;;;;5019415;28;20212;-78
2023/05/24 11:47:48;;;;;;;15.10;8.97;;;13.90;99.90;;;;;;5021541;28;20302;-80
2023/05/24 11:50:16;;;;;;;11.97;8.60;;;13.90;99.90;;;;;;5027732;28;20200;-79
2023/05/24 11:52:43;;;;;;;10.10;7.60;;;13.90;99.90;;;;;;5021212;28;20218;-82
2023/05/24 11:55:15;;;;;;;8.97;7.17;;;14.00;99.90;;;;;;5020738;28;20687;-81
2023/05/24 11:57:49;;;;;;;9.67;8.63;;;14.10;99.90;;;;;;5021393;28;20235;-82
2023/05/24 12:00:24;;;;;;;11.73;9.40;;;14.20;99.90;;;;;;5014912;28;20233;-78
2023/05/24 12:02:51;;;;;;;13.97;8.77;;;14.20;99.90;;;;;;5013035;28;20272;-79
2023/05/24 12:05:19;;;;;;;12.83;8.03;;;14.20;99.90;;;;;;5010889;28;20225;-78
2023/05/24 12:07:47;;;;;;;12.40;8.73;;;14.20;99.90;;;;;;5011435;28;20706;-79
2023/05/24 12:10:15;;;;;;;11.67;8.50;;;14.20;99.90;;;;;;5021951;28;20650;-78
2023/05/24 12:12:44;;;;;;;11.33;8.57;;;14.20;99.90;;;;;;5011208;28;20529;-79
2023/05/24 12:15:11;;;;;;;14.07;8.07;;;14.30;99.90;;;;;;5009462;28;20215;-78
2023/05/24 12:17:38;;;;;;;15.50;9.33;;;14.40;99.90;;;;;;5013403;28;20191;-78
2023/05/24 12:20:07;;;;;;;10.23;5.63;;;14.50;99.90;;;;;;5012586;28;20238;-79
2023/05/24 12:22:34;;;;;;;11.17;8.20;;;14.60;99.90;;;;;;5010997;28;20207;-79
2023/05/24 12:25:03;;;;;;;11.97;8.17;;;14.70;99.90;;;;;;5010071;28;20344;-78
2023/05/24 12:27:33;;;;;;;11.77;5.90;;;14.80;99.90;;;;;;5011836;28;20262;-78
2023/05/24 12:30:08;;;;;;;12.83;6.20;;;14.80;99.90;;;;;;5018400;28;20207;-78
2023/05/24 12:32:35;;;;;;;11.47;5.77;;;15.00;99.90;;;;;;5016549;28;20655;-79
2023/05/24 12:35:04;;;;;;;11.53;8.03;;;14.90;99.90;;;;;;5010473;28;20277;-78
2023/05/24 12:37:31;;;;;;;9.70;7.20;;;15.00;99.90;;;;;;5007145;28;20202;-78
2023/05/24 12:40:00;;;;;;;9.93;7.70;;;15.20;99.90;;;;;;5026893;28;20706;-80
2023/05/24 12:42:27;;;;;;;9.07;7.30;;;15.30;99.90;;;;;;5011409;28;20224;-80
2023/05/24 12:44:55;;;;;;;15.40;9.10;;;15.50;99.90;;;;;;5015148;28;20212;-80
2023/05/24 12:47:22;;;;;;;12.67;8.17;;;15.50;99.90;;;;;;5002963;28;20218;-77